Time;durP1;ratioP1;P1;durP2;ratioP2;P2;SDS_P1;SDS_P2;PMS_P1;PMS_P2;Temp;Humidity;BMP_temperature;BMP_pressure;BME280_temperature;BME280_humidity;BME280_pressure;Samples;Min_cycle;Max_cycle;Signal;HPM_P1;HPM_P2
2023/12/16 00:01:47;;;;;;;21.00;19.10;;;6.80;99.90;;;;;;4867459;29;20202;-49
2023/12/16 00:04:12;;;;;;;19.77;18.00;;;6.70;99.90;;;;;;4866765;29;20196;-51
2023/12/16 00:06:38;;;;;;;20.37;18.57;;;6.70;99.90;;;;;;4866494;29;20429;-50
2023/12/16 00:09:04;;;;;;;20.40;18.70;;;6.70;99.90;;;;;;4867215;29;20196;-51
2023/12/16 00:11:29;;;;;;;20.90;18.83;;;6.80;99.90;;;;;;4867247;29;20243;-49
2023/12/16 00:13:55;;;;;;;22.20;19.13;;;6.80;99.90;;;;;;4867070;29;20192;-50
2023/12/16 00:16:24;;;;;;;20.63;18.80;;;6.80;99.90;;;;;;4866950;29;20192;-51
2023/12/16 00:18:49;;;;;;;19.80;18.00;;;6.80;99.90;;;;;;4866405;29;20481;-51
2023/12/16 00:21:15;;;;;;;21.27;19.10;;;6.80;99.90;;;;;;4866725;29;20576;-50
2023/12/16 00:23:41;;;;;;;20.67;18.40;;;6.90;99.90;;;;;;4866771;29;20200;-48
2023/12/16 00:26:06;;;;;;;21.37;19.27;;;6.80;99.90;;;;;;4867287;29;20192;-50
2023/12/16 00:28:32;;;;;;;20.83;18.73;;;6.80;99.90;;;;;;4866439;29;20223;-48
2023/12/16 00:30:57;;;;;;;20.67;18.67;;;6.70;99.90;;;;;;4873775;29;20215;-52
2023/12/16 00:33:23;;;;;;;21.10;18.63;;;6.70;99.90;;;;;;4866672;29;20546;-52
2023/12/16 00:35:49;;;;;;;20.13;18.33;;;6.70;99.90;;;;;;4866759;29;20226;-48
2023/12/16 00:38:14;;;;;;;19.27;17.60;;;6.70;99.90;;;;;;4866840;29;20663;-49
2023/12/16 00:40:40;;;;;;;20.47;18.53;;;6.70;99.90;;;;;;4866665;29;20275;-48
2023/12/16 00:43:05;;;;;;;19.50;17.80;;;6.70;99.90;;;;;;4866047;29;20262;-50
2023/12/16 00:45:31;;;;;;;24.13;19.00;;;6.80;99.90;;;;;;4866039;29;20188;-48
2023/12/16 00:47:57;;;;;;;21.00;18.80;;;6.80;99.90;;;;;;4866622;29;20187;-50
2023/12/16 00:50:22;;;;;;;20.53;18.63;;;6.80;99.90;;;;;;4866766;29;20247;-47
2023/12/16 00:52:48;;;;;;;20.13;18.17;;;6.90;99.90;;;;;;4866611;29;20683;-50
2023/12/16 00:55:14;;;;;;;19.53;17.63;;;6.90;99.90;;;;;;4866581;29;20256;-48
2023/12/16 00:57:40;;;;;;;19.50;17.70;;;6.90;99.90;;;;;;4866341;29;20859;-49
2023/12/16 01:00:06;;;;;;;18.57;16.97;;;6.90;99.90;;;;;;4866399;29;20192;-51
2023/12/16 01:02:32;;;;;;;20.93;18.93;;;6.90;99.90;;;;;;4866266;29;20608;-49
2023/12/16 01:04:58;;;;;;;20.53;18.53;;;6.90;99.90;;;;;;4866123;29;20424;-49
2023/12/16 01:07:23;;;;;;;20.27;18.23;;;6.90;99.90;;;;;;4866226;29;20202;-48
2023/12/16 01:09:53;;;;;;;21.33;18.57;;;6.90;99.90;;;;;;4865400;29;20198;-53
2023/12/16 01:12:18;;;;;;;19.83;18.03;;;6.90;99.90;;;;;;4865945;29;20222;-47
2023/12/16 01:14:44;;;;;;;20.60;18.47;;;6.90;99.90;;;;;;4866536;29;20428;-50
2023/12/16 01:17:10;;;;;;;20.60;18.47;;;6.90;99.90;;;;;;4871847;29;20278;-50
2023/12/16 01:19:35;;;;;;;20.27;18.37;;;6.90;99.90;;;;;;4866144;29;20729;-52
2023/12/16 01:22:01;;;;;;;20.77;18.73;;;7.00;98.20;;;;;;4866217;29;20283;-46
2023/12/16 01:24:27;;;;;;;21.20;19.30;;;6.90;99.90;;;;;;4866200;29;20242;-49
2023/12/16 01:26:53;;;;;;;22.08;19.90;;;6.90;99.90;;;;;;4866302;29;20655;-50
2023/12/16 01:29:18;;;;;;;21.37;19.37;;;6.90;99.90;;;;;;4865794;29;20188;-50
2023/12/16 01:31:44;;;;;;;21.50;19.23;;;6.80;99.90;;;;;;4870733;29;20610;-48
2023/12/16 01:34:09;;;;;;;21.60;19.10;;;6.80;99.90;;;;;;4862253;29;20196;-48
2023/12/16 01:36:35;;;;;;;21.80;19.70;;;6.80;99.90;;;;;;4865916;29;20499;-48
2023/12/16 01:39:01;;;;;;;23.40;21.20;;;6.70;99.90;;;;;;4865949;29;20199;-51
2023/12/16 01:41:26;;;;;;;22.17;20.17;;;6.70;99.90;;;;;;4865581;29;20195;-50
2023/12/16 01:43:52;;;;;;;22.93;20.47;;;6.60;99.90;;;;;;4875514;29;20255;-50
2023/12/16 01:46:19;;;;;;;21.60;19.63;;;6.60;99.90;;;;;;4865769;29;20242;-51
2023/12/16 01:48:46;;;;;;;22.63;20.53;;;6.60;99.90;;;;;;4865696;29;20294;-51
2023/12/16 01:51:13;;;;;;;22.88;20.77;;;6.60;99.90;;;;;;4865946;29;20468;-48
2023/12/16 01:53:39;;;;;;;22.43;20.47;;;6.60;99.90;;;;;;4865902;29;20778;-51
2023/12/16 01:56:07;;;;;;;21.83;19.67;;;6.60;99.90;;;;;;4865608;29;20429;-50
2023/12/16 01:58:33;;;;;;;22.83;20.70;;;6.60;99.90;;;;;;4866107;29;20515;-46
2023/12/16 02:00:59;;;;;;;21.42;19.48;;;6.60;99.90;;;;;;4865725;29;20436;-51
2023/12/16 02:03:27;;;;;;;22.87;20.83;;;6.60;99.90;;;;;;4865793;29;20199;-49
2023/12/16 02:05:52;;;;;;;22.70;20.50;;;6.60;99.90;;;;;;4865531;29;20246;-50
2023/12/16 02:08:18;;;;;;;22.40;20.10;;;6.70;99.90;;;;;;4865688;29;20531;-50
2023/12/16 02:10:44;;;;;;;23.00;20.30;;;6.70;99.90;;;;;;4865238;29;20226;-53
2023/12/16 02:13:10;;;;;;;22.43;20.03;;;6.70;99.90;;;;;;4862731;29;20184;-49
2023/12/16 02:15:35;;;;;;;23.10;20.97;;;6.60;99.90;;;;;;4865755;29;20486;-51
2023/12/16 02:18:01;;;;;;;22.57;20.40;;;6.60;99.90;;;;;;4865856;29;20599;-48
2023/12/16 02:20:26;;;;;;;21.80;19.87;;;6.60;99.90;;;;;;4865799;29;20192;-49
2023/12/16 02:22:53;;;;;;;24.07;21.60;;;6.60;99.90;;;;;;4865682;29;20184;-49
2023/12/16 02:25:19;;;;;;;21.87;19.70;;;6.60;99.90;;;;;;4865617;29;20255;-50
2023/12/16 02:27:45;;;;;;;22.87;20.47;;;6.60;99.90;;;;;;4865565;29;20983;-50
2023/12/16 02:30:11;;;;;;;22.80;20.50;;;6.60;99.90;;;;;;4867476;29;20211;-48
2023/12/16 02:32:38;;;;;;;21.98;19.92;;;6.60;99.90;;;;;;4868809;29;20447;-52
2023/12/16 02:35:04;;;;;;;22.80;20.60;;;6.60;99.90;;;;;;4868804;29;20518;-47
2023/12/16 02:37:30;;;;;;;21.57;19.00;;;6.60;99.90;;;;;;4868644;29;21516;-49
2023/12/16 02:39:55;;;;;;;21.40;19.17;;;6.60;99.90;;;;;;4868375;29;20428;-51
2023/12/16 02:42:21;;;;;;;20.27;18.53;;;6.60;99.90;;;;;;4868679;29;20433;-48
2023/12/16 02:44:47;;;;;;;21.60;19.43;;;6.60;99.90;;;;;;4868882;29;20252;-49
2023/12/16 02:47:12;;;;;;;22.80;20.40;;;6.60;99.90;;;;;;4868528;29;20358;-54
2023/12/16 02:49:38;;;;;;;21.67;19.40;;;6.70;99.90;;;;;;4868615;29;20188;-50
2023/12/16 02:52:04;;;;;;;20.60;18.63;;;6.70;99.90;;;;;;4868262;29;20472;-52
2023/12/16 02:54:30;;;;;;;21.30;19.27;;;6.60;99.90;;;;;;4868591;29;20183;-52
2023/12/16 02:56:56;;;;;;;20.47;18.53;;;6.60;99.90;;;;;;4868642;29;20500;-49
2023/12/16 02:59:21;;;;;;;21.03;18.93;;;6.60;99.90;;;;;;4868626;29;20628;-48
2023/12/16 03:01:47;;;;;;;21.67;19.50;;;6.60;99.90;;;;;;4868389;29;20187;-51
2023/12/16 03:04:13;;;;;;;20.37;18.67;;;6.60;99.90;;;;;;4868434;29;20188;-50
2023/12/16 03:06:45;;;;;;;20.83;18.93;;;6.70;99.90;;;;;;4867520;29;20286;-48
2023/12/16 03:09:10;;;;;;;21.30;19.20;;;6.70;99.90;;;;;;4868071;29;20696;-48
2023/12/16 03:11:36;;;;;;;20.30;18.50;;;6.70;99.90;;;;;;4867809;29;20223;-49
2023/12/16 03:14:02;;;;;;;21.23;18.98;;;6.70;99.90;;;;;;4867994;29;20645;-47
2023/12/16 03:16:28;;;;;;;20.90;19.00;;;6.70;99.90;;;;;;4868182;29;20302;-49
2023/12/16 03:18:53;;;;;;;20.40;18.50;;;6.70;99.90;;;;;;4868298;29;20184;-49
2023/12/16 03:21:19;;;;;;;20.40;18.50;;;6.70;99.90;;;;;;4867254;29;20223;-51
2023/12/16 03:23:44;;;;;;;21.00;19.00;;;6.70;99.90;;;;;;4868141;29;20220;-48
2023/12/16 03:26:10;;;;;;;19.93;18.23;;;6.70;99.90;;;;;;4868236;29;20196;-49
2023/12/16 03:28:36;;;;;;;19.17;17.37;;;6.70;99.90;;;;;;4867568;29;20188;-49
2023/12/16 03:31:01;;;;;;;19.60;17.80;;;6.70;99.90;;;;;;4867768;29;20287;-52
2023/12/16 03:33:27;;;;;;;18.37;16.47;;;6.70;99.80;;;;;;4867934;29;21309;-49
2023/12/16 03:35:52;;;;;;;18.60;17.00;;;6.70;98.80;;;;;;4867861;29;20232;-51
2023/12/16 03:38:18;;;;;;;19.70;18.00;;;6.70;95.60;;;;;;4867388;29;20210;-47
2023/12/16 03:40:43;;;;;;;19.90;18.03;;;6.80;93.40;;;;;;4867502;29;20192;-49
2023/12/16 03:43:09;;;;;;;19.00;17.40;;;6.80;89.70;;;;;;4867281;29;20252;-48
2023/12/16 03:45:36;;;;;;;18.60;17.20;;;6.80;69.90;;;;;;4867667;29;20266;-48
2023/12/16 03:48:01;;;;;;;17.57;16.23;;;6.80;60.30;;;;;;4867197;29;20439;-51
2023/12/16 03:50:27;;;;;;;18.73;16.90;;;6.80;43.90;;;;;;4867168;29;20574;-47
2023/12/16 03:52:52;;;;;;;17.23;16.03;;;6.80;44.10;;;;;;4867370;29;20202;-50
2023/12/16 03:55:18;;;;;;;17.87;16.37;;;6.90;13.90;;;;;;4867862;29;20195;-47
2023/12/16 03:57:44;;;;;;;16.70;15.60;;;6.90;10.00;;;;;;4867933;29;20183;-49
2023/12/16 04:00:10;;;;;;;17.17;15.60;;;6.90;1.00;;;;;;4867042;29;20215;-47
2023/12/16 04:02:35;;;;;;;15.83;14.73;;;6.80;4.30;;;;;;4867469;29;20248;-51
2023/12/16 04:05:01;;;;;;;15.60;14.43;;;6.80;3.50;;;;;;4867139;29;21129;-50
2023/12/16 04:07:27;;;;;;;16.20;14.90;;;6.80;3.70;;;;;;4866958;29;20187;-49
2023/12/16 04:09:54;;;;;;;16.13;14.90;;;6.80;1.00;;;;;;4867565;29;20192;-49
2023/12/16 04:12:19;;;;;;;15.77;14.30;;;6.90;1.00;;;;;;4866801;29;21011;-47
2023/12/16 04:14:46;;;;;;;15.53;14.43;;;6.90;1.00;;;;;;4867158;29;20443;-47
2023/12/16 04:17:11;;;;;;;15.88;14.45;;;6.90;1.00;;;;;;4867227;29;20231;-52
2023/12/16 04:19:37;;;;;;;15.57;14.40;;;6.90;1.00;;;;;;4873255;29;20500;-47
2023/12/16 04:22:03;;;;;;;15.60;14.20;;;6.90;1.00;;;;;;4866626;29;20290;-48
2023/12/16 04:24:29;;;;;;;15.17;13.97;;;7.00;1.00;;;;;;4866619;29;20430;-49
2023/12/16 04:26:55;;;;;;;14.60;13.70;;;7.00;1.00;;;;;;4866881;29;20256;-48
2023/12/16 04:29:21;;;;;;;14.83;13.83;;;7.00;1.00;;;;;;4867132;29;20244;-48
2023/12/16 04:31:46;;;;;;;15.40;14.40;;;7.00;1.00;;;;;;4866365;29;20712;-51
2023/12/16 04:34:12;;;;;;;15.20;13.90;;;7.00;1.00;;;;;;4866579;29;20551;-48
2023/12/16 04:36:37;;;;;;;14.83;13.53;;;7.00;1.00;;;;;;4866278;29;20195;-47
2023/12/16 04:39:07;;;;;;;14.57;13.27;;;7.00;1.00;;;;;;4866269;29;20271;-46
2023/12/16 04:41:33;;;;;;;15.20;14.10;;;7.00;1.00;;;;;;4866860;29;20699;-45
2023/12/16 04:43:59;;;;;;;15.23;14.10;;;7.10;1.00;;;;;;4866263;29;20483;-48
2023/12/16 04:46:25;;;;;;;15.67;14.50;;;7.10;1.00;;;;;;4866337;29;20196;-52
2023/12/16 04:48:51;;;;;;;14.20;13.40;;;7.10;1.00;;;;;;4867064;29;20473;-51
2023/12/16 04:51:17;;;;;;;39.03;30.77;;;7.10;1.00;;;;;;4865940;29;20220;-51
2023/12/16 04:53:42;;;;;;;16.27;14.97;;;7.10;1.00;;;;;;4865801;29;20436;-52
2023/12/16 04:56:08;;;;;;;31.17;27.70;;;7.10;1.00;;;;;;4866279;29;20184;-50
2023/12/16 04:58:34;;;;;;;23.97;22.07;;;7.00;1.00;;;;;;4866201;29;20299;-50
2023/12/16 05:01:00;;;;;;;20.03;18.43;;;7.00;1.00;;;;;;4866441;29;20435;-48
2023/12/16 05:03:25;;;;;;;15.60;14.50;;;7.00;1.00;;;;;;4866301;29;20472;-52
2023/12/16 05:05:51;;;;;;;16.93;15.60;;;7.00;1.00;;;;;;4866163;29;20614;-50
2023/12/16 05:08:19;;;;;;;14.40;13.40;;;7.00;1.00;;;;;;4857032;29;20215;-50
2023/12/16 05:10:47;;;;;;;22.20;20.30;;;7.00;1.00;;;;;;4865716;29;20207;-49
2023/12/16 05:13:16;;;;;;;16.07;14.87;;;7.00;1.00;;;;;;4865981;29;20857;-52
2023/12/16 05:15:42;;;;;;;26.23;23.67;;;7.00;1.00;;;;;;4866017;29;20419;-48
2023/12/16 05:18:08;;;;;;;16.63;15.50;;;7.00;1.00;;;;;;4866283;29;20419;-49
2023/12/16 05:20:34;;;;;;;17.63;16.37;;;7.00;1.00;;;;;;4865833;29;20428;-53
2023/12/16 05:23:00;;;;;;;16.60;15.10;;;7.00;1.00;;;;;;4866224;29;20421;-48
2023/12/16 05:25:30;;;;;;;16.07;14.73;;;7.00;1.00;;;;;;4866174;29;20471;-52
2023/12/16 05:27:56;;;;;;;17.40;15.90;;;6.90;1.00;;;;;;4866178;29;20196;-53
2023/12/16 05:30:22;;;;;;;16.90;15.70;;;6.90;1.00;;;;;;4865941;29;20424;-52
2023/12/16 05:32:48;;;;;;;14.60;13.67;;;6.90;1.00;;;;;;4866097;29;21189;-48
2023/12/16 05:35:14;;;;;;;19.93;18.23;;;6.90;1.00;;;;;;4865928;29;21045;-46
2023/12/16 05:37:40;;;;;;;20.03;18.50;;;6.90;1.00;;;;;;4865888;29;20520;-48
2023/12/16 05:40:06;;;;;;;19.90;18.20;;;6.80;1.00;;;;;;4866152;29;20436;-51
2023/12/16 05:42:32;;;;;;;16.83;15.67;;;6.90;1.00;;;;;;4866077;29;20578;-51
2023/12/16 05:44:57;;;;;;;20.40;18.67;;;6.90;1.00;;;;;;4865744;29;20478;-52
2023/12/16 05:47:23;;;;;;;44.47;39.50;;;6.90;1.00;;;;;;4865605;29;20584;-49
2023/12/16 05:49:48;;;;;;;17.97;16.20;;;6.90;1.00;;;;;;4866009;29;20655;-50
2023/12/16 05:52:14;;;;;;;18.30;16.60;;;7.00;1.00;;;;;;4865911;29;20222;-51
2023/12/16 05:54:40;;;;;;;14.80;13.77;;;7.00;1.00;;;;;;4865671;29;20248;-48
2023/12/16 05:57:05;;;;;;;16.97;15.57;;;7.00;1.00;;;;;;4866125;29;20913;-52
2023/12/16 05:59:31;;;;;;;14.80;13.60;;;6.90;1.00;;;;;;4878554;29;20188;-47
2023/12/16 06:01:57;;;;;;;15.33;14.30;;;6.90;1.00;;;;;;4865944;29;20192;-49
2023/12/16 06:04:22;;;;;;;14.20;13.23;;;6.90;1.00;;;;;;4866551;29;20271;-47
2023/12/16 06:06:48;;;;;;;14.67;13.63;;;6.80;1.00;;;;;;4869339;29;20747;-51
2023/12/16 06:09:14;;;;;;;16.27;14.63;;;6.90;1.00;;;;;;4869612;29;20198;-51
2023/12/16 06:11:40;;;;;;;15.43;14.20;;;7.00;1.00;;;;;;4868933;29;20256;-52
2023/12/16 06:14:05;;;;;;;15.47;14.10;;;7.00;1.00;;;;;;4866877;29;20302;-48
2023/12/16 06:16:31;;;;;;;14.80;13.80;;;7.00;1.00;;;;;;4868909;29;20227;-48
2023/12/16 06:18:57;;;;;;;15.57;14.27;;;7.00;1.00;;;;;;4869287;29;20685;-52
2023/12/16 06:21:23;;;;;;;14.27;13.17;;;7.00;1.00;;;;;;4869229;29;20199;-53
2023/12/16 06:23:48;;;;;;;15.00;13.90;;;7.00;1.00;;;;;;4868934;29;20436;-50
2023/12/16 06:26:14;;;;;;;14.37;13.27;;;7.00;1.00;;;;;;4869128;29;20219;-50
2023/12/16 06:28:40;;;;;;;14.83;13.83;;;7.00;1.00;;;;;;4868925;29;20192;-50
2023/12/16 06:31:05;;;;;;;13.43;12.63;;;7.00;1.00;;;;;;4868876;29;20566;-50
2023/12/16 06:33:31;;;;;;;14.40;13.40;;;7.10;1.00;;;;;;4868516;29;20267;-51
2023/12/16 06:35:56;;;;;;;16.13;14.73;;;7.00;1.00;;;;;;4869257;29;20195;-47
2023/12/16 06:38:22;;;;;;;14.37;13.20;;;7.00;1.00;;;;;;4868779;29;20556;-49
2023/12/16 06:40:47;;;;;;;14.60;13.53;;;7.10;1.00;;;;;;4868480;29;20215;-52
2023/12/16 06:43:13;;;;;;;15.77;14.33;;;7.10;1.00;;;;;;4868573;29;20235;-51
2023/12/16 06:45:39;;;;;;;15.23;14.00;;;7.20;1.00;;;;;;4868653;29;20271;-52
2023/12/16 06:48:05;;;;;;;16.07;14.60;;;7.20;1.00;;;;;;4868684;29;20549;-54
2023/12/16 06:50:30;;;;;;;14.23;13.23;;;7.20;1.00;;;;;;4868429;29;21004;-50
2023/12/16 06:52:56;;;;;;;14.57;13.67;;;7.20;1.00;;;;;;4868680;29;20429;-51
2023/12/16 06:55:21;;;;;;;15.87;14.40;;;7.20;1.00;;;;;;4868502;29;20192;-50
2023/12/16 06:57:47;;;;;;;14.60;13.50;;;7.20;1.00;;;;;;4868103;29;20191;-50
2023/12/16 07:00:13;;;;;;;15.40;14.10;;;7.20;1.00;;;;;;4867949;29;20646;-49
2023/12/16 07:02:43;;;;;;;14.50;13.30;;;7.20;1.00;;;;;;4868011;29;20191;-51
2023/12/16 07:05:10;;;;;;;15.27;13.87;;;7.20;1.00;;;;;;4868257;29;20435;-52
2023/12/16 07:07:36;;;;;;;15.40;14.17;;;7.20;1.00;;;;;;4867376;29;20419;-52
2023/12/16 07:10:03;;;;;;;14.13;13.20;;;7.20;1.00;;;;;;4867133;29;20421;-53
2023/12/16 07:12:29;;;;;;;15.43;14.23;;;7.20;1.00;;;;;;4866955;29;20460;-51
2023/12/16 07:14:55;;;;;;;16.17;14.97;;;7.30;1.00;;;;;;4866734;29;20421;-52
2023/12/16 07:17:20;;;;;;;15.40;14.30;;;7.20;1.00;;;;;;4867721;29;20179;-50
2023/12/16 07:19:46;;;;;;;13.50;12.60;;;7.20;1.00;;;;;;4868012;29;20215;-51
2023/12/16 07:22:18;;;;;;;14.67;13.57;;;7.30;1.00;;;;;;4868184;29;20190;-47
2023/12/16 07:24:45;;;;;;;15.67;14.33;;;7.30;1.00;;;;;;4867913;29;20202;-52
2023/12/16 07:27:10;;;;;;;14.30;13.40;;;7.30;1.00;;;;;;4868505;29;20507;-47
2023/12/16 07:29:36;;;;;;;15.73;14.33;;;7.30;1.00;;;;;;4867542;29;20497;-54
2023/12/16 07:32:03;;;;;;;14.80;13.60;;;7.20;1.00;;;;;;4867959;29;20686;-53
2023/12/16 07:34:29;;;;;;;14.60;13.40;;;7.20;1.00;;;;;;4867996;29;20518;-51
2023/12/16 07:36:54;;;;;;;16.23;14.90;;;7.20;1.00;;;;;;4867631;29;20992;-50
2023/12/16 07:39:20;;;;;;;14.47;13.23;;;7.10;1.00;;;;;;4867806;29;20188;-50
2023/12/16 07:41:46;;;;;;;14.37;13.17;;;7.10;1.00;;;;;;4867990;29;20750;-52
2023/12/16 07:44:12;;;;;;;15.77;14.17;;;7.10;1.00;;;;;;4867635;29;20688;-51
2023/12/16 07:46:40;;;;;;;15.50;14.23;;;7.10;1.00;;;;;;4867577;29;20751;-53
2023/12/16 07:49:05;;;;;;;15.70;14.50;;;7.10;1.00;;;;;;4867580;29;20216;-49
2023/12/16 07:51:31;;;;;;;14.53;13.70;;;7.10;1.00;;;;;;4867786;29;20563;-52
2023/12/16 07:53:57;;;;;;;16.03;14.80;;;7.00;1.00;;;;;;4867559;29;20211;-54
2023/12/16 07:56:24;;;;;;;16.63;15.33;;;7.00;1.00;;;;;;4867240;29;20551;-49
2023/12/16 07:58:50;;;;;;;15.70;14.50;;;7.00;1.00;;;;;;4867239;29;20268;-51
2023/12/16 08:01:17;;;;;;;15.43;14.20;;;7.00;1.00;;;;;;4867505;29;20195;-51
2023/12/16 08:03:43;;;;;;;15.03;13.83;;;7.00;1.00;;;;;;4867430;29;20196;-47
2023/12/16 08:06:09;;;;;;;15.50;14.30;;;7.00;1.00;;;;;;4867399;29;20544;-54
2023/12/16 08:08:38;;;;;;;15.50;14.40;;;7.00;1.00;;;;;;4867067;29;20476;-52
2023/12/16 08:11:05;;;;;;;16.70;15.48;;;7.00;1.00;;;;;;4866549;29;20472;-49
2023/12/16 08:13:31;;;;;;;21.63;19.80;;;7.00;1.00;;;;;;4867120;29;20811;-48
2023/12/16 08:15:57;;;;;;;22.97;20.80;;;7.00;1.00;;;;;;4867069;29;20422;-49
2023/12/16 08:18:22;;;;;;;19.90;18.10;;;7.10;1.00;;;;;;4866972;29;20424;-53
2023/12/16 08:20:48;;;;;;;16.20;15.00;;;7.10;1.00;;;;;;4867163;29;20650;-51
2023/12/16 08:23:15;;;;;;;15.67;14.23;;;7.20;1.00;;;;;;4866940;29;20192;-48
2023/12/16 08:25:41;;;;;;;16.20;15.10;;;7.30;1.00;;;;;;4866681;29;20429;-48
2023/12/16 08:28:06;;;;;;;16.20;14.80;;;7.30;1.00;;;;;;4866146;29;20472;-50
2023/12/16 08:30:32;;;;;;;15.53;14.23;;;7.40;1.00;;;;;;4866598;29;20708;-48
2023/12/16 08:32:57;;;;;;;15.90;14.13;;;7.40;1.00;;;;;;4867064;29;20215;-51
2023/12/16 08:35:23;;;;;;;14.80;13.60;;;7.50;1.00;;;;;;4866877;29;20187;-49
2023/12/16 08:37:48;;;;;;;16.40;14.90;;;7.50;1.00;;;;;;4866809;29;20216;-49
2023/12/16 08:40:14;;;;;;;14.80;13.70;;;7.50;1.00;;;;;;4866845;29;20192;-48
2023/12/16 08:42:42;;;;;;;15.80;14.60;;;7.60;1.00;;;;;;4866524;29;20196;-48
2023/12/16 08:45:09;;;;;;;15.50;14.40;;;7.60;1.00;;;;;;4866166;29;20291;-48
2023/12/16 08:47:35;;;;;;;17.00;15.20;;;7.70;1.00;;;;;;4866439;29;20424;-51
2023/12/16 08:50:00;;;;;;;16.03;14.63;;;7.70;1.00;;;;;;4866448;29;21319;-51
2023/12/16 08:52:27;;;;;;;15.73;14.37;;;7.80;1.00;;;;;;4866971;29;20218;-51
2023/12/16 08:54:52;;;;;;;15.53;14.23;;;7.80;1.00;;;;;;4866144;29;20279;-49
2023/12/16 08:57:18;;;;;;;16.37;14.87;;;7.90;1.00;;;;;;4866096;29;20440;-48
2023/12/16 08:59:44;;;;;;;15.67;14.40;;;8.00;1.00;;;;;;4865992;29;20202;-50
2023/12/16 09:02:10;;;;;;;15.13;14.03;;;8.00;1.00;;;;;;4866158;29;20188;-48
2023/12/16 09:04:35;;;;;;;15.37;14.30;;;8.00;1.00;;;;;;4866180;29;20211;-50
2023/12/16 09:07:01;;;;;;;16.03;14.93;;;8.10;1.00;;;;;;4866143;29;20710;-48
2023/12/16 09:09:26;;;;;;;15.23;14.20;;;8.10;1.00;;;;;;4865540;29;20188;-50
2023/12/16 09:11:53;;;;;;;16.27;15.13;;;8.10;1.00;;;;;;4865810;29;20204;-48
2023/12/16 09:14:18;;;;;;;15.70;14.47;;;8.20;1.00;;;;;;4865773;29;20464;-50
2023/12/16 09:16:44;;;;;;;16.67;15.37;;;8.20;1.00;;;;;;4866124;29;20431;-51
2023/12/16 09:19:11;;;;;;;14.53;13.67;;;8.20;1.00;;;;;;4865631;29;20195;-53
2023/12/16 09:21:37;;;;;;;15.37;14.37;;;8.30;1.00;;;;;;4865425;29;20191;-49
2023/12/16 09:24:05;;;;;;;17.20;15.63;;;8.30;1.00;;;;;;4865962;29;20431;-53
2023/12/16 09:26:30;;;;;;;16.53;14.83;;;8.30;1.00;;;;;;4865789;29;20274;-49
2023/12/16 09:28:56;;;;;;;16.93;15.40;;;8.30;1.00;;;;;;4864444;29;20436;-47
2023/12/16 09:31:21;;;;;;;16.60;15.20;;;8.20;1.00;;;;;;4865715;29;20259;-47
2023/12/16 09:33:47;;;;;;;15.73;14.40;;;8.30;1.00;;;;;;4879930;29;20228;-48
2023/12/16 09:36:13;;;;;;;15.00;13.70;;;8.30;1.00;;;;;;4865800;29;20679;-49
2023/12/16 09:38:42;;;;;;;15.07;13.87;;;8.30;1.00;;;;;;4867170;29;20183;-53
2023/12/16 09:41:44;;;;;;;15.77;14.57;;;8.30;1.00;;;;;;4869554;29;20443;-49
2023/12/16 09:44:15;;;;;;;15.40;14.30;;;8.30;1.00;;;;;;4873331;29;20499;-50
2023/12/16 09:46:41;;;;;;;16.20;15.03;;;8.30;1.00;;;;;;4870031;29;20901;-50
2023/12/16 09:49:06;;;;;;;14.67;13.47;;;8.40;1.00;;;;;;4869385;29;20431;-48
2023/12/16 09:51:32;;;;;;;16.00;14.70;;;8.40;1.00;;;;;;4869220;29;20216;-49
2023/12/16 09:53:58;;;;;;;15.33;14.03;;;8.40;1.00;;;;;;4869647;29;20247;-48
2023/12/16 09:56:27;;;;;;;15.07;13.90;;;8.50;1.00;;;;;;4868955;29;20428;-47
2023/12/16 09:58:53;;;;;;;14.33;13.03;;;8.50;1.00;;;;;;4869263;29;20194;-51
2023/12/16 10:01:19;;;;;;;16.43;14.67;;;8.60;1.00;;;;;;4861796;29;20462;-51
2023/12/16 10:03:46;;;;;;;16.67;15.07;;;8.70;1.00;;;;;;4869316;29;20859;-50
2023/12/16 10:06:12;;;;;;;14.23;13.23;;;8.70;1.00;;;;;;4869414;29;20796;-51
2023/12/16 10:08:40;;;;;;;14.57;13.43;;;8.80;1.00;;;;;;4869292;29;20423;-52
2023/12/16 10:11:06;;;;;;;14.37;13.40;;;8.80;1.00;;;;;;4869388;29;20212;-50
2023/12/16 10:13:32;;;;;;;15.43;14.23;;;8.80;99.90;;;;;;4868862;29;20951;-51
2023/12/16 10:15:59;;;;;;;16.13;14.93;;;8.80;99.90;;;;;;4875486;29;20458;-52
2023/12/16 10:18:28;;;;;;;15.03;13.87;;;8.90;99.90;;;;;;4869559;29;20448;-53
2023/12/16 10:20:55;;;;;;;15.80;14.70;;;9.00;99.90;;;;;;4868869;29;20644;-50
2023/12/16 10:23:23;;;;;;;14.67;13.37;;;9.10;89.00;;;;;;4868761;29;20432;-51
2023/12/16 10:25:49;;;;;;;15.37;14.20;;;9.00;58.40;;;;;;4868829;29;20435;-51
2023/12/16 10:28:14;;;;;;;16.40;15.30;;;9.00;1.00;;;;;;4867571;29;20561;-53
2023/12/16 10:30:41;;;;;;;14.90;13.80;;;8.90;30.20;;;;;;4868303;29;20566;-51
2023/12/16 10:33:08;;;;;;;14.63;13.60;;;8.90;26.90;;;;;;4869002;29;20560;-54
2023/12/16 10:35:36;;;;;;;15.67;14.53;;;8.80;99.90;;;;;;4868778;29;20441;-51
2023/12/16 10:38:02;;;;;;;15.87;14.47;;;8.80;99.90;;;;;;4868540;29;20742;-50
2023/12/16 10:40:28;;;;;;;16.10;14.80;;;8.90;99.10;;;;;;4868602;29;20428;-54
2023/12/16 10:42:54;;;;;;;15.07;14.07;;;8.90;1.00;;;;;;4868544;29;20856;-45
2023/12/16 10:45:20;;;;;;;15.40;14.10;;;8.90;1.00;;;;;;4868417;29;20420;-45
2023/12/16 10:47:49;;;;;;;15.17;14.07;;;8.80;1.00;;;;;;4868417;29;20554;-43
2023/12/16 10:50:15;;;;;;;15.43;14.23;;;8.80;1.00;;;;;;4868043;29;20432;-43
2023/12/16 10:52:51;;;;;;;14.90;13.80;;;8.90;1.00;;;;;;4868367;29;20479;-43
2023/12/16 10:55:30;;;;;;;16.87;15.43;;;8.90;1.00;;;;;;4876258;29;20464;-43
2023/12/16 10:58:10;;;;;;;16.27;14.97;;;8.90;1.00;;;;;;4868173;29;20428;-45
2023/12/16 11:00:38;;;;;;;15.13;13.97;;;9.00;1.00;;;;;;4868671;29;20435;-43
2023/12/16 11:03:07;;;;;;;15.27;14.00;;;9.00;1.00;;;;;;4868283;29;20905;-43
2023/12/16 11:05:41;;;;;;;16.13;14.60;;;9.10;25.70;;;;;;4868690;29;20424;-45
2023/12/16 11:08:07;;;;;;;15.73;14.73;;;9.00;1.00;;;;;;4868151;29;20424;-43
2023/12/16 11:10:32;;;;;;;15.40;14.30;;;9.20;1.00;;;;;;4868219;29;20611;-43
2023/12/16 11:13:03;;;;;;;15.80;14.70;;;9.20;1.00;;;;;;4868551;29;20425;-45
2023/12/16 11:15:33;;;;;;;15.60;14.40;;;9.20;1.00;;;;;;4868250;29;20219;-44
2023/12/16 11:18:20;;;;;;;15.73;14.63;;;9.30;1.00;;;;;;4868238;29;20484;-45
2023/12/16 11:20:52;;;;;;;13.67;12.77;;;9.20;99.90;;;;;;4868074;29;20732;-49
2023/12/16 11:23:18;;;;;;;14.70;13.57;;;9.30;1.00;;;;;;4868396;29;20420;-43
2023/12/16 11:25:47;;;;;;;14.00;13.10;;;9.30;1.00;;;;;;4868733;29;20496;-46
2023/12/16 11:28:15;;;;;;;14.90;13.50;;;9.30;1.00;;;;;;4868227;29;20440;-43
2023/12/16 11:30:43;;;;;;;14.83;13.83;;;9.40;99.90;;;;;;4867840;29;20477;-46
2023/12/16 11:33:08;;;;;;;14.60;13.60;;;9.40;1.00;;;;;;4867584;29;20630;-43
2023/12/16 11:35:40;;;;;;;14.20;13.30;;;9.50;99.30;;;;;;4868121;29;20440;-43
2023/12/16 11:38:09;;;;;;;16.17;14.87;;;9.50;1.00;;;;;;4867906;29;20195;-45
2023/12/16 11:40:52;;;;;;;15.60;14.20;;;9.50;1.00;;;;;;4867999;29;20429;-43
2023/12/16 11:43:18;;;;;;;15.53;14.33;;;9.60;99.90;;;;;;4867471;29;20550;-46
2023/12/16 11:45:45;;;;;;;15.10;13.90;;;9.70;1.00;;;;;;4867659;29;20428;-47
2023/12/16 11:48:14;;;;;;;14.90;13.80;;;10.20;1.00;;;;;;4867346;29;20438;-43
2023/12/16 11:50:41;;;;;;;14.47;13.47;;;10.90;1.00;;;;;;4867649;29;20420;-45
2023/12/16 11:53:11;;;;;;;15.27;13.90;;;11.40;85.40;;;;;;4867523;29;20428;-46
2023/12/16 11:55:37;;;;;;;14.27;13.33;;;11.80;1.00;;;;;;4867335;29;20428;-43
2023/12/16 11:58:04;;;;;;;14.60;13.60;;;12.30;99.90;;;;;;4867414;29;20484;-45
2023/12/16 12:00:29;;;;;;;15.07;14.07;;;12.60;1.00;;;;;;4867467;29;20939;-44
2023/12/16 12:02:56;;;;;;;14.77;13.60;;;12.60;1.00;;;;;;4866028;29;20433;-45
2023/12/16 12:05:22;;;;;;;15.83;14.63;;;12.70;1.00;;;;;;4867564;29;20184;-46
2023/12/16 12:07:48;;;;;;;14.93;13.93;;;12.60;1.00;;;;;;4867314;29;20439;-44
2023/12/16 12:10:14;;;;;;;15.20;14.20;;;12.40;1.00;;;;;;4867432;29;20784;-44
2023/12/16 12:12:39;;;;;;;15.23;14.23;;;12.60;1.00;;;;;;4867177;29;20535;-45
2023/12/16 12:15:07;;;;;;;14.90;13.90;;;13.00;1.00;;;;;;4867528;29;20191;-43
2023/12/16 12:17:34;;;;;;;14.83;13.43;;;12.70;1.00;;;;;;4867091;29;20653;-44
2023/12/16 12:19:59;;;;;;;15.47;14.17;;;12.60;1.00;;;;;;4867336;29;20484;-44
2023/12/16 12:22:25;;;;;;;14.23;13.43;;;12.00;1.00;;;;;;4867222;29;20911;-42
2023/12/16 12:24:51;;;;;;;14.53;13.40;;;11.50;1.00;;;;;;4867361;29;20432;-43
2023/12/16 12:27:20;;;;;;;15.20;14.00;;;11.00;1.00;;;;;;4866323;29;20998;-47
2023/12/16 12:30:18;;;;;;;14.80;13.80;;;10.90;1.00;;;;;;4881442;29;20223;-43
2023/12/16 12:32:44;;;;;;;15.07;14.03;;;10.70;1.00;;;;;;4869733;29;20895;-44
2023/12/16 12:35:11;;;;;;;14.37;13.47;;;10.50;1.00;;;;;;4866607;29;20432;-42
2023/12/16 12:37:45;;;;;;;14.80;13.80;;;10.30;1.00;;;;;;4866822;29;20291;-43
2023/12/16 12:40:15;;;;;;;14.30;13.27;;;10.10;1.00;;;;;;4866697;29;20428;-44